Strona główna
METAR-TAF:

METAR-TAF

Lotnisko :

Akron, Ohio, Stany Zjednoczone

Szerokość geograficzna: 41-02-15N, Długość geograficzna: 081-27-51W, wysokość: 325 m

Aktualna obserwacja pogody

Raport powstał 37 minut temu, godzina 01:54 UTC
Cisza
Temperatura 20°C
Wilgotność 64%
Ciśnienie 1017 hPa
Widzialność: 16.1 km
bezchmurnie

METAR: KAKR 240154Z AUTO 00000KT 10SM CLR 20/13 A3002 RMK AO2 RAB18E28 SLP157 P0000 T02000128

czas: 22:31 (02:31 UTC)


TAF: brakujący

Obserwacja i prognoza pogody dla ponad 4000 lotnisk (raport METAR i TAF).

Dostępne stacje oznaczono żółtymi i czerwonymi punktami na mapie.

Najedź kursorem aby zobaczyć nazwę stacji.

Kliknij aby zobaczyć obserwacje i prognozy pogody.

Aby zmienić mapę: kliknij na zielony przycisk z czarnym krzyżykiem, aby powiększyć; na zielony przycisk z myślnikiem, aby pomniejszyć; na zielone strzałki, aby przejść do map sąsiednich.


METAR-TAF: